Time;durP1;ratioP1;P1;durP2;ratioP2;P2;SDS_P1;SDS_P2;PMS_P1;PMS_P2;Temp;Humidity;BMP_temperature;BMP_pressure;BME280_temperature;BME280_humidity;BME280_pressure;Samples;Min_cycle;Max_cycle;Signal;HPM_P1;HPM_P2
2022/01/09 00:01:51;;;;;;;19.42;18.52;;;8.30;80.60;;;;;;5051502;28;20033;-82
2022/01/09 00:04:17;;;;;;;19.77;18.88;;;8.20;80.50;;;;;;5072992;28;20090;-82
2022/01/09 00:06:43;;;;;;;19.52;18.63;;;8.20;80.50;;;;;;5056298;28;20048;-82
2022/01/09 00:09:09;;;;;;;19.75;18.85;;;8.20;80.50;;;;;;5057937;28;20249;-82
2022/01/09 00:11:35;;;;;;;19.63;18.73;;;8.20;80.50;;;;;;5071828;28;20040;-82
2022/01/09 00:14:02;;;;;;;19.38;18.48;;;8.20;80.50;;;;;;5069854;28;20032;-82
2022/01/09 00:16:28;;;;;;;19.27;18.38;;;8.20;80.50;;;;;;5058302;28;20044;-82
2022/01/09 00:18:54;;;;;;;19.38;18.48;;;8.20;80.50;;;;;;5059305;28;20036;-82
2022/01/09 00:21:20;;;;;;;21.52;20.50;;;8.20;80.50;;;;;;5057529;28;20029;-82
2022/01/09 00:23:46;;;;;;;19.85;18.95;;;8.20;80.50;;;;;;5094377;28;20381;-82
2022/01/09 00:26:12;;;;;;;19.10;18.20;;;8.10;80.40;;;;;;5087132;28;20489;-82
2022/01/09 00:28:38;;;;;;;19.55;18.65;;;8.10;80.40;;;;;;5091059;28;20028;-82
2022/01/09 00:31:04;;;;;;;19.08;18.17;;;8.10;80.50;;;;;;5064985;28;20464;-83
2022/01/09 00:33:30;;;;;;;19.20;18.30;;;8.10;80.40;;;;;;5080274;28;20040;-82
2022/01/09 00:35:56;;;;;;;19.92;18.48;;;8.10;80.40;;;;;;5098242;28;20386;-82
2022/01/09 00:38:22;;;;;;;19.58;18.58;;;8.10;80.50;;;;;;5087849;28;20028;-82
2022/01/09 00:40:49;;;;;;;19.63;18.73;;;8.10;80.50;;;;;;5087137;28;20037;-82
2022/01/09 00:43:15;;;;;;;19.00;18.10;;;8.00;80.40;;;;;;5053650;28;20489;-82
2022/01/09 00:45:41;;;;;;;19.13;18.23;;;8.00;80.30;;;;;;5093612;28;20041;-82
2022/01/09 00:48:08;;;;;;;19.02;18.10;;;8.00;80.20;;;;;;5071443;28;20029;-82
2022/01/09 00:50:36;;;;;;;19.23;18.33;;;8.00;80.30;;;;;;5087559;28;20385;-82
2022/01/09 00:53:08;;;;;;;19.17;18.27;;;8.00;80.40;;;;;;5085370;28;20130;-82
2022/01/09 00:55:34;;;;;;;19.45;18.45;;;8.00;80.30;;;;;;5055951;28;20032;-82
2022/01/09 00:58:00;;;;;;;19.02;18.13;;;8.00;80.30;;;;;;5098008;28;20032;-82
2022/01/09 01:00:26;;;;;;;18.90;18.00;;;8.00;80.30;;;;;;5061105;28;20048;-82
2022/01/09 01:02:52;;;;;;;18.20;17.40;;;8.00;80.30;;;;;;5063180;28;20029;-82
2022/01/09 01:05:18;;;;;;;18.92;18.02;;;8.00;80.30;;;;;;5100117;28;20027;-82
2022/01/09 01:07:44;;;;;;;18.70;17.80;;;8.00;80.20;;;;;;5055259;28;20028;-82
2022/01/09 01:10:11;;;;;;;18.20;17.38;;;8.00;80.30;;;;;;5064206;28;20401;-83
2022/01/09 01:12:37;;;;;;;20.45;19.35;;;8.00;80.30;;;;;;5093671;28;20029;-82
2022/01/09 01:15:04;;;;;;;19.17;18.27;;;8.00;80.20;;;;;;5056378;28;20437;-83
2022/01/09 01:17:32;;;;;;;20.15;19.17;;;8.00;80.30;;;;;;5091576;28;20045;-82
2022/01/09 01:19:58;;;;;;;20.42;19.17;;;7.90;80.20;;;;;;5067206;28;20044;-82
2022/01/09 01:22:24;;;;;;;18.80;17.90;;;7.90;80.20;;;;;;5057255;28;20482;-82
2022/01/09 01:24:52;;;;;;;19.52;18.58;;;7.90;80.10;;;;;;5092269;28;20367;-83
2022/01/09 01:27:18;;;;;;;19.17;18.17;;;7.90;80.10;;;;;;5078858;28;20045;-82
2022/01/09 01:29:44;;;;;;;19.35;18.38;;;7.90;80.10;;;;;;5098325;28;20040;-82
2022/01/09 01:32:10;;;;;;;20.98;19.52;;;7.90;80.10;;;;;;5052275;28;20389;-82
2022/01/09 01:34:36;;;;;;;20.08;19.08;;;7.90;80.10;;;;;;5054651;28;20037;-82
2022/01/09 01:37:02;;;;;;;19.27;18.38;;;7.90;80.10;;;;;;5059787;28;20397;-82
2022/01/09 01:39:29;;;;;;;18.67;17.77;;;7.90;80.10;;;;;;5093291;28;20032;-82
2022/01/09 01:41:55;;;;;;;18.58;17.73;;;7.90;80.10;;;;;;5044302;28;20041;-82
2022/01/09 01:44:21;;;;;;;18.50;17.67;;;7.90;80.10;;;;;;5089611;28;20037;-83
2022/01/09 01:46:47;;;;;;;18.70;17.80;;;7.90;80.00;;;;;;5090512;28;20036;-82
2022/01/09 01:49:13;;;;;;;19.25;18.35;;;7.90;80.00;;;;;;5075780;28;20092;-82
2022/01/09 01:51:42;;;;;;;18.70;17.83;;;7.90;80.00;;;;;;5067196;28;20036;-82
2022/01/09 01:54:09;;;;;;;18.38;17.58;;;7.90;80.10;;;;;;5100833;28;20032;-82
2022/01/09 01:56:36;;;;;;;18.35;17.55;;;7.90;80.00;;;;;;5069358;28;20544;-83
2022/01/09 01:59:02;;;;;;;18.45;17.58;;;7.90;80.00;;;;;;5070954;28;20063;-82
2022/01/09 02:01:29;;;;;;;17.88;17.08;;;7.90;80.00;;;;;;5084782;28;20052;-82
2022/01/09 02:03:55;;;;;;;19.20;18.30;;;7.90;80.00;;;;;;5101169;28;20032;-82
2022/01/09 02:06:21;;;;;;;20.17;18.83;;;8.00;80.00;;;;;;5065964;28;20045;-82
2022/01/09 02:08:47;;;;;;;18.92;18.02;;;7.90;79.90;;;;;;5096766;28;20024;-82
2022/01/09 02:11:13;;;;;;;19.77;18.55;;;7.90;79.90;;;;;;5071438;28;20048;-82
2022/01/09 02:13:41;;;;;;;18.60;17.73;;;7.90;80.00;;;;;;5053735;28;20037;-82
2022/01/09 02:16:16;;;;;;;18.27;17.47;;;7.90;80.00;;;;;;5071788;28;20076;-82
2022/01/09 02:18:43;;;;;;;18.65;17.75;;;7.90;80.00;;;;;;5088569;28;20021;-83
2022/01/09 02:21:10;;;;;;;19.10;18.20;;;7.90;79.90;;;;;;5092688;28;20481;-82
2022/01/09 02:23:39;;;;;;;18.60;17.70;;;8.00;79.90;;;;;;5050167;28;20041;-82
2022/01/09 02:26:06;;;;;;;18.13;17.33;;;8.00;79.90;;;;;;5070897;28;20032;-82
2022/01/09 02:28:32;;;;;;;18.83;17.92;;;8.00;79.90;;;;;;5073877;28;20044;-82
2022/01/09 02:30:58;;;;;;;19.08;18.17;;;8.00;79.90;;;;;;5060710;28;20040;-82
2022/01/09 02:33:24;;;;;;;18.70;17.80;;;8.00;79.90;;;;;;5083503;28;20035;-82
2022/01/09 02:35:51;;;;;;;17.98;17.17;;;8.00;79.90;;;;;;5082117;28;20032;-83
2022/01/09 02:38:18;;;;;;;18.40;17.60;;;8.00;79.90;;;;;;5088770;28;20027;-82
2022/01/09 02:40:48;;;;;;;18.85;17.83;;;8.00;79.90;;;;;;5068596;28;20039;-82
2022/01/09 02:43:14;;;;;;;18.20;17.40;;;8.00;79.80;;;;;;5075230;28;20044;-82
2022/01/09 02:45:41;;;;;;;18.33;17.52;;;8.00;79.80;;;;;;5057556;28;20052;-82
2022/01/09 02:48:09;;;;;;;18.27;17.48;;;8.00;79.80;;;;;;5066172;28;20029;-82
2022/01/09 02:50:40;;;;;;;18.63;17.77;;;8.00;79.70;;;;;;5101241;28;20036;-82
2022/01/09 02:53:20;;;;;;;19.23;18.33;;;8.00;79.80;;;;;;5069740;28;20031;-82
2022/01/09 02:55:46;;;;;;;17.85;17.05;;;8.00;79.80;;;;;;5083198;28;20389;-82
2022/01/09 02:58:12;;;;;;;18.33;17.52;;;8.00;79.70;;;;;;5048516;28;20041;-82
2022/01/09 03:00:40;;;;;;;18.03;17.23;;;8.00;79.70;;;;;;5065293;28;20036;-82
2022/01/09 03:03:06;;;;;;;19.10;18.10;;;8.00;79.70;;;;;;5081889;28;20016;-82
2022/01/09 03:05:32;;;;;;;18.48;17.58;;;8.00;79.70;;;;;;5065244;28;20036;-82
2022/01/09 03:07:59;;;;;;;19.20;17.83;;;8.00;79.80;;;;;;5064558;28;20374;-82
2022/01/09 03:10:25;;;;;;;20.27;19.13;;;8.00;79.80;;;;;;5074158;28;20041;-82
2022/01/09 03:12:52;;;;;;;19.50;18.30;;;8.00;79.80;;;;;;5073347;28;20242;-82
2022/01/09 03:15:18;;;;;;;18.20;17.40;;;8.00;79.70;;;;;;5060905;28;20397;-82
2022/01/09 03:17:44;;;;;;;18.35;17.50;;;8.10;79.80;;;;;;5066131;28;20037;-82
2022/01/09 03:20:15;;;;;;;18.55;17.67;;;8.10;79.80;;;;;;5084697;28;20387;-82
2022/01/09 03:22:41;;;;;;;;;;;8.10;79.70;;;;;;5083278;28;20024;-82
2022/01/09 03:25:08;;;;;;;18.90;18.00;;;8.10;79.70;;;;;;5073001;28;20345;-83
2022/01/09 03:27:35;;;;;;;17.88;17.08;;;8.10;79.60;;;;;;5071243;28;20490;-82
2022/01/09 03:30:02;;;;;;;18.17;17.38;;;8.10;79.60;;;;;;5080977;28;20035;-82
2022/01/09 03:32:28;;;;;;;18.40;17.50;;;8.10;79.50;;;;;;5085608;28;20025;-82
2022/01/09 03:34:54;;;;;;;18.98;17.98;;;8.20;80.30;;;;;;5099703;28;20501;-82
2022/01/09 03:37:20;;;;;;;18.85;17.95;;;8.20;79.50;;;;;;5069458;28;20041;-82
2022/01/09 03:39:46;;;;;;;18.40;17.60;;;8.20;79.50;;;;;;5096399;28;20369;-82
2022/01/09 03:42:12;;;;;;;19.00;18.10;;;8.30;79.50;;;;;;5078716;28;20047;-82
2022/01/09 03:44:38;;;;;;;18.67;17.77;;;8.30;79.50;;;;;;5067692;28;20375;-82
2022/01/09 03:47:04;;;;;;;18.63;17.75;;;8.30;79.50;;;;;;5067838;28;20521;-82
2022/01/09 03:49:31;;;;;;;18.30;17.40;;;8.30;79.50;;;;;;5070632;28;20037;-82
2022/01/09 03:51:58;;;;;;;19.08;18.17;;;8.30;79.50;;;;;;5069842;28;20036;-82
2022/01/09 03:54:24;;;;;;;18.20;17.40;;;8.30;79.50;;;;;;5065453;28;20028;-82
2022/01/09 03:56:50;;;;;;;18.75;17.85;;;8.40;79.50;;;;;;5098922;28;20513;-84
2022/01/09 03:59:17;;;;;;;18.83;17.92;;;8.40;79.40;;;;;;5082626;28;20036;-82
2022/01/09 04:01:43;;;;;;;18.35;17.55;;;8.40;79.40;;;;;;5067077;28;20052;-82
2022/01/09 04:04:09;;;;;;;18.83;17.92;;;8.40;79.40;;;;;;5073282;28;20422;-82
2022/01/09 04:06:37;;;;;;;18.67;17.77;;;8.40;79.40;;;;;;5091160;28;20039;-82
2022/01/09 04:09:08;;;;;;;19.42;18.52;;;8.40;79.40;;;;;;5057724;28;20033;-82
2022/01/09 04:11:38;;;;;;;20.02;19.02;;;8.40;79.30;;;;;;5087735;28;20028;-82
2022/01/09 04:14:05;;;;;;;18.88;17.98;;;8.50;79.40;;;;;;5068964;28;20037;-82
2022/01/09 04:16:31;;;;;;;18.65;17.77;;;8.50;79.40;;;;;;5055423;28;20056;-82
2022/01/09 04:18:57;;;;;;;19.30;18.40;;;8.50;79.40;;;;;;5057891;28;20025;-82
2022/01/09 04:21:23;;;;;;;18.75;17.85;;;8.50;79.40;;;;;;5089047;28;20047;-82
2022/01/09 04:23:50;;;;;;;18.48;17.65;;;8.40;79.20;;;;;;5057587;28;20025;-82
2022/01/09 04:26:17;;;;;;;18.73;17.83;;;8.50;79.40;;;;;;5069081;28;20493;-82
2022/01/09 04:28:43;;;;;;;18.45;17.63;;;8.50;79.30;;;;;;5087866;28;20474;-83
2022/01/09 04:31:10;;;;;;;18.80;17.90;;;8.50;79.30;;;;;;5068182;28;20028;-82
2022/01/09 04:33:36;;;;;;;19.45;18.55;;;8.50;79.30;;;;;;5066395;28;20021;-82
2022/01/09 04:36:02;;;;;;;19.23;18.33;;;8.50;79.30;;;;;;5102839;28;20031;-82
2022/01/09 04:38:28;;;;;;;18.85;17.95;;;8.50;79.30;;;;;;5053452;28;20039;-82
2022/01/09 04:40:54;;;;;;;19.25;18.35;;;8.50;79.40;;;;;;5070654;28;20044;-82
2022/01/09 04:43:20;;;;;;;19.38;18.48;;;8.50;79.40;;;;;;5072153;28;20029;-82
2022/01/09 04:45:46;;;;;;;20.25;19.02;;;8.50;79.40;;;;;;5068590;28;20039;-82
2022/01/09 04:48:14;;;;;;;19.60;18.70;;;8.50;79.40;;;;;;5051903;28;20493;-82
2022/01/09 04:50:43;;;;;;;19.60;18.70;;;8.50;79.40;;;;;;5070519;28;20036;-83
2022/01/09 04:53:09;;;;;;;19.15;18.25;;;8.50;79.40;;;;;;5068555;28;20032;-82
2022/01/09 04:55:38;;;;;;;19.40;18.50;;;8.50;79.40;;;;;;5087550;28;20493;-82
2022/01/09 04:58:04;;;;;;;19.95;19.05;;;8.50;79.40;;;;;;5085238;28;20032;-82
2022/01/09 05:00:30;;;;;;;19.23;18.33;;;8.50;79.40;;;;;;5065567;28;20037;-82
2022/01/09 05:02:56;;;;;;;19.30;18.40;;;8.50;79.40;;;;;;5092879;28;20020;-82
2022/01/09 05:05:23;;;;;;;20.67;19.10;;;8.50;79.40;;;;;;5069096;28;20020;-82
2022/01/09 05:07:49;;;;;;;19.02;18.13;;;8.50;79.40;;;;;;5053023;28;20029;-82
2022/01/09 05:10:15;;;;;;;19.23;18.33;;;8.50;79.40;;;;;;5069965;28;20028;-82
2022/01/09 05:12:41;;;;;;;19.50;18.50;;;8.50;79.40;;;;;;5071230;28;20035;-82
2022/01/09 05:15:08;;;;;;;18.05;17.25;;;8.60;79.40;;;;;;5055723;28;20465;-82
2022/01/09 05:17:34;;;;;;;19.92;19.02;;;8.60;79.40;;;;;;5055922;28;20075;-82
2022/01/09 05:20:00;;;;;;;19.20;18.30;;;8.50;79.30;;;;;;5056318;28;20029;-82
2022/01/09 05:22:29;;;;;;;18.98;18.08;;;8.60;79.40;;;;;;5075470;28;20043;-82
2022/01/09 05:24:58;;;;;;;19.45;18.55;;;8.60;79.40;;;;;;5056011;28;20021;-82
2022/01/09 05:27:24;;;;;;;20.00;19.08;;;8.50;79.40;;;;;;5073870;28;20473;-82
2022/01/09 05:29:50;;;;;;;20.17;19.13;;;8.60;79.50;;;;;;5072308;28;20032;-82
2022/01/09 05:32:16;;;;;;;18.80;17.90;;;8.50;79.40;;;;;;5053577;28;20041;-82
2022/01/09 05:34:43;;;;;;;19.73;18.77;;;8.60;79.40;;;;;;5040550;28;20488;-82
2022/01/09 05:37:09;;;;;;;19.17;18.27;;;8.60;79.40;;;;;;5072567;28;20040;-83
2022/01/09 05:39:35;;;;;;;19.50;18.60;;;8.50;79.40;;;;;;5055955;28;20041;-83
2022/01/09 05:42:03;;;;;;;19.50;18.60;;;8.50;79.50;;;;;;5073243;28;20436;-83
2022/01/09 05:44:29;;;;;;;18.88;17.98;;;8.50;79.40;;;;;;5056874;28;20044;-83
2022/01/09 05:46:55;;;;;;;19.85;18.95;;;8.50;79.40;;;;;;5038427;28;20044;-83
2022/01/09 05:49:21;;;;;;;19.55;18.65;;;8.50;79.50;;;;;;5073965;28;20024;-83
2022/01/09 05:51:47;;;;;;;19.67;18.48;;;8.50;79.50;;;;;;5069995;28;20033;-84
2022/01/09 05:54:13;;;;;;;19.48;18.58;;;8.50;79.50;;;;;;5072350;28;20389;-84
2022/01/09 05:56:39;;;;;;;19.05;18.15;;;8.50;79.50;;;;;;5070991;28;20033;-84
2022/01/09 05:59:05;;;;;;;19.50;18.60;;;8.50;79.60;;;;;;5071552;28;20481;-84
2022/01/09 06:01:31;;;;;;;19.10;18.15;;;8.40;79.60;;;;;;5067163;28;20044;-86
2022/01/09 06:03:57;;;;;;;19.92;19.00;;;8.40;80.40;;;;;;5086751;28;20373;-85
2022/01/09 06:06:24;;;;;;;19.17;18.27;;;8.40;79.60;;;;;;5038661;28;20037;-83
2022/01/09 06:08:50;;;;;;;20.13;19.02;;;8.40;79.60;;;;;;5071199;28;20393;-83
2022/01/09 06:11:16;;;;;;;19.33;18.42;;;8.40;79.70;;;;;;5035879;28;20036;-82
2022/01/09 06:13:42;;;;;;;18.58;17.73;;;8.40;79.70;;;;;;5072750;28;20131;-83
2022/01/09 06:16:08;;;;;;;18.42;17.60;;;8.30;79.60;;;;;;5093307;28;20047;-83
2022/01/09 06:18:34;;;;;;;18.40;17.60;;;8.30;79.70;;;;;;5069890;28;20378;-84
2022/01/09 06:21:00;;;;;;;18.75;17.42;;;8.30;79.70;;;;;;5072053;28;20051;-83
2022/01/09 06:23:26;;;;;;;18.35;17.55;;;8.30;79.70;;;;;;5069708;28;20033;-82
2022/01/09 06:25:52;;;;;;;18.35;17.55;;;8.30;79.70;;;;;;5072977;28;20035;-82
2022/01/09 06:28:19;;;;;;;18.02;17.23;;;8.30;79.70;;;;;;5072428;28;20052;-82
2022/01/09 06:30:45;;;;;;;18.83;17.92;;;8.20;79.70;;;;;;5070518;28;20033;-82
2022/01/09 06:33:11;;;;;;;18.45;17.63;;;8.30;79.90;;;;;;5070149;28;20036;-81
2022/01/09 06:35:38;;;;;;;18.70;17.83;;;8.20;79.80;;;;;;5071633;28;20055;-82
2022/01/09 06:38:04;;;;;;;17.55;16.75;;;8.20;79.80;;;;;;5053846;28;20025;-81
2022/01/09 06:40:31;;;;;;;17.83;17.02;;;8.20;79.80;;;;;;5071789;28;20033;-85
2022/01/09 06:42:57;;;;;;;17.48;16.67;;;8.10;79.80;;;;;;5054218;28;20036;-83
2022/01/09 06:45:24;;;;;;;18.38;17.58;;;8.20;79.90;;;;;;5066515;28;20037;-81
2022/01/09 06:47:54;;;;;;;19.52;18.63;;;8.10;79.90;;;;;;5069685;28;20025;-82
2022/01/09 06:50:21;;;;;;;19.95;18.95;;;8.10;79.90;;;;;;5094901;28;20064;-81
2022/01/09 06:52:47;;;;;;;19.45;18.55;;;8.10;79.90;;;;;;5072689;28;20049;-81
2022/01/09 06:55:13;;;;;;;20.65;19.73;;;8.10;79.90;;;;;;5058610;28;20504;-81
2022/01/09 06:57:40;;;;;;;19.58;18.67;;;8.10;79.90;;;;;;5091593;28;20025;-80
2022/01/09 07:00:07;;;;;;;21.67;20.33;;;8.00;79.90;;;;;;5057686;28;20028;-83
2022/01/09 07:02:33;;;;;;;23.10;22.00;;;8.10;80.00;;;;;;5101314;28;20410;-83
2022/01/09 07:04:59;;;;;;;20.52;19.58;;;8.00;79.90;;;;;;5054298;28;20037;-81
2022/01/09 07:07:25;;;;;;;19.77;18.88;;;8.00;79.90;;;;;;5058609;28;20033;-82
2022/01/09 07:09:52;;;;;;;21.38;19.48;;;8.00;79.90;;;;;;5096522;28;20350;-82
2022/01/09 07:12:19;;;;;;;18.70;17.83;;;8.00;80.00;;;;;;5063729;28;20029;-81
2022/01/09 07:14:46;;;;;;;18.80;17.90;;;8.00;80.00;;;;;;5089712;28;20028;-82
2022/01/09 07:17:12;;;;;;;18.88;17.98;;;8.00;80.00;;;;;;5084453;28;20060;-82
2022/01/09 07:19:38;;;;;;;18.25;17.45;;;8.00;80.00;;;;;;5067896;28;20043;-82
2022/01/09 07:22:07;;;;;;;18.30;17.40;;;8.00;80.00;;;;;;5058587;28;20049;-81
2022/01/09 07:24:33;;;;;;;18.05;17.25;;;8.00;80.00;;;;;;5073967;28;20405;-82
2022/01/09 07:26:59;;;;;;;18.38;17.55;;;8.00;80.00;;;;;;5094721;28;20393;-83
2022/01/09 07:29:25;;;;;;;17.95;17.15;;;8.00;80.00;;;;;;5056240;28;20040;-84
2022/01/09 07:31:52;;;;;;;17.50;16.70;;;8.00;80.00;;;;;;5071749;28;20033;-82
2022/01/09 07:34:18;;;;;;;17.58;16.75;;;8.00;80.00;;;;;;5056965;28;20052;-83
2022/01/09 07:36:45;;;;;;;17.50;16.70;;;8.00;80.00;;;;;;5064219;28;20031;-82
2022/01/09 07:39:11;;;;;;;18.65;17.33;;;8.00;80.00;;;;;;5081697;28;20100;-87
2022/01/09 07:41:37;;;;;;;16.92;16.13;;;8.00;80.00;;;;;;5080686;28;20033;-83
2022/01/09 07:44:03;;;;;;;17.43;16.63;;;8.00;80.00;;;;;;5084157;28;20507;-81
2022/01/09 07:46:29;;;;;;;17.30;16.35;;;8.00;80.10;;;;;;5088225;28;20025;-82
2022/01/09 07:48:55;;;;;;;17.45;16.65;;;8.00;80.10;;;;;;5053066;28;20040;-82
2022/01/09 07:51:22;;;;;;;16.75;15.95;;;8.00;80.10;;;;;;5079142;28;20032;-82
2022/01/09 07:53:48;;;;;;;17.70;16.90;;;8.00;80.00;;;;;;5065328;28;20029;-83
2022/01/09 07:56:14;;;;;;;18.80;17.35;;;8.00;80.10;;;;;;5061748;28;20401;-80
2022/01/09 07:58:40;;;;;;;16.88;16.08;;;8.00;80.10;;;;;;5074539;28;20032;-83
2022/01/09 08:01:06;;;;;;;18.13;17.33;;;8.00;80.10;;;;;;5064847;28;20381;-82
2022/01/09 08:03:33;;;;;;;16.80;16.00;;;8.00;80.10;;;;;;5041580;28;20025;-83
2022/01/09 08:06:00;;;;;;;17.50;16.70;;;8.00;80.10;;;;;;5064507;28;20029;-83
2022/01/09 08:08:26;;;;;;;17.98;16.80;;;8.00;80.20;;;;;;5074156;28;20052;-85
2022/01/09 08:10:52;;;;;;;17.80;16.92;;;8.00;80.10;;;;;;5071116;28;20036;-91
2022/01/09 08:13:19;;;;;;;17.20;16.40;;;8.00;80.10;;;;;;5068709;28;20377;-82
2022/01/09 08:15:45;;;;;;;17.50;16.70;;;8.00;80.10;;;;;;5065090;28;20056;-82
2022/01/09 08:18:11;;;;;;;17.50;16.70;;;8.00;80.10;;;;;;5065133;28;20055;-83
2022/01/09 08:20:37;;;;;;;17.40;16.60;;;8.00;80.10;;;;;;5043437;28;20048;-83
2022/01/09 08:23:06;;;;;;;17.38;16.58;;;8.00;80.10;;;;;;5069076;28;20094;-83
2022/01/09 08:25:32;;;;;;;17.13;16.33;;;8.10;80.10;;;;;;5103216;28;20037;-83
2022/01/09 08:27:58;;;;;;;17.20;16.40;;;8.10;80.10;;;;;;5067725;28;20047;-83
2022/01/09 08:30:24;;;;;;;17.20;16.40;;;8.10;80.10;;;;;;5068402;28;20111;-83
2022/01/09 08:32:53;;;;;;;17.52;16.73;;;8.10;80.10;;;;;;5069261;28;20086;-83
2022/01/09 08:35:21;;;;;;;17.48;16.67;;;8.10;80.00;;;;;;5037461;28;20040;-82
2022/01/09 08:37:47;;;;;;;17.58;16.77;;;8.20;80.10;;;;;;5053866;28;20385;-82
2022/01/09 08:40:17;;;;;;;18.08;17.02;;;8.20;80.00;;;;;;5086389;28;20492;-82
2022/01/09 08:42:43;;;;;;;17.57;16.77;;;8.20;80.00;;;;;;5084409;28;20045;-82
2022/01/09 08:45:10;;;;;;;17.65;16.85;;;8.30;80.00;;;;;;5066204;28;20039;-84
2022/01/09 08:47:38;;;;;;;16.88;16.08;;;8.30;79.90;;;;;;5053284;28;20051;-83
2022/01/09 08:50:04;;;;;;;17.30;16.50;;;8.30;79.90;;;;;;5068781;28;20508;-87
2022/01/09 08:52:31;;;;;;;18.10;17.25;;;8.40;79.90;;;;;;5087502;28;20039;-86
2022/01/09 08:54:57;;;;;;;18.48;17.58;;;8.40;79.90;;;;;;5085058;28;20052;-81
2022/01/09 08:57:25;;;;;;;17.45;16.65;;;8.40;79.80;;;;;;5068038;28;20480;-82
2022/01/09 08:59:52;;;;;;;17.73;16.92;;;8.40;79.80;;;;;;5069384;28;20021;-81
2022/01/09 09:02:18;;;;;;;17.85;17.05;;;8.50;79.80;;;;;;5069399;28;20040;-82
2022/01/09 09:04:44;;;;;;;17.80;17.00;;;8.50;79.80;;;;;;5069675;28;20461;-84
2022/01/09 09:07:11;;;;;;;18.52;17.63;;;8.60;79.80;;;;;;5101466;28;20032;-82
2022/01/09 09:09:37;;;;;;;17.33;16.52;;;8.60;79.70;;;;;;5103202;28;20599;-80
2022/01/09 09:12:04;;;;;;;17.85;17.05;;;8.60;79.70;;;;;;5048744;28;20513;-80
2022/01/09 09:14:30;;;;;;;17.92;17.02;;;8.70;79.80;;;;;;5070669;28;20523;-81
2022/01/09 09:16:57;;;;;;;19.30;18.35;;;8.70;79.70;;;;;;5097629;28;20063;-81
2022/01/09 09:19:23;;;;;;;18.92;18.02;;;8.70;79.60;;;;;;5071953;28;20043;-81
2022/01/09 09:21:49;;;;;;;19.00;18.10;;;8.80;79.50;;;;;;5088655;28;20033;-81
2022/01/09 09:24:17;;;;;;;19.10;18.20;;;8.90;79.50;;;;;;5056462;28;20021;-80
2022/01/09 09:26:43;;;;;;;19.67;18.52;;;8.90;80.20;;;;;;5068016;28;20032;-81
2022/01/09 09:29:09;;;;;;;19.17;18.17;;;8.90;79.50;;;;;;5068892;28;20043;-81
2022/01/09 09:31:35;;;;;;;19.15;18.25;;;9.00;79.50;;;;;;5064752;28;20432;-80
2022/01/09 09:34:01;;;;;;;18.83;17.92;;;9.00;79.40;;;;;;5080442;28;20029;-81
2022/01/09 09:36:27;;;;;;;18.70;17.50;;;9.10;79.40;;;;;;5096969;28;20036;-81
2022/01/09 09:38:53;;;;;;;17.33;16.52;;;9.10;79.30;;;;;;5064375;28;20485;-81
2022/01/09 09:41:23;;;;;;;18.17;17.38;;;9.20;79.20;;;;;;5067607;28;20032;-80
2022/01/09 09:43:50;;;;;;;18.77;17.88;;;9.20;79.20;;;;;;5047566;28;20049;-81
2022/01/09 09:46:16;;;;;;;19.15;18.25;;;9.20;79.20;;;;;;5065177;28;20378;-78
2022/01/09 09:48:42;;;;;;;23.25;22.15;;;9.30;79.30;;;;;;5104901;28;20035;-81
2022/01/09 09:51:08;;;;;;;22.23;20.80;;;9.30;79.20;;;;;;5050518;28;20381;-80
2022/01/09 09:53:34;;;;;;;20.40;19.40;;;9.40;79.20;;;;;;5099688;28;20032;-81
2022/01/09 09:56:00;;;;;;;21.95;20.95;;;9.40;79.10;;;;;;5099931;28;20029;-80
2022/01/09 09:58:28;;;;;;;21.50;20.50;;;9.50;79.20;;;;;;5067457;28;20392;-80
2022/01/09 10:00:55;;;;;;;21.10;20.10;;;9.60;79.00;;;;;;5052639;28;20036;-81
2022/01/09 10:03:28;;;;;;;21.50;20.50;;;9.70;79.10;;;;;;5097290;28;20041;-79
2022/01/09 10:05:54;;;;;;;20.45;19.45;;;9.80;79.70;;;;;;5101982;28;20032;-84
2022/01/09 10:08:21;;;;;;;20.73;19.70;;;9.90;78.70;;;;;;5099620;28;20035;-80
2022/01/09 10:10:47;;;;;;;19.90;19.00;;;10.00;78.50;;;;;;5071352;28;20481;-80
2022/01/09 10:13:15;;;;;;;22.42;21.33;;;10.20;78.40;;;;;;5106183;28;20040;-80
2022/01/09 10:15:48;;;;;;;21.90;20.70;;;10.20;78.40;;;;;;5066150;28;20039;-80
2022/01/09 10:18:34;;;;;;;20.60;19.67;;;10.20;78.40;;;;;;5066406;28;20386;-80
2022/01/09 10:21:05;;;;;;;19.27;18.38;;;10.20;78.40;;;;;;5070730;28;20035;-81
2022/01/09 10:23:31;;;;;;;;;;;10.10;78.40;;;;;;5055093;28;20048;-81
2022/01/09 10:26:00;;;;;;;21.75;20.75;;;10.10;78.60;;;;;;5070614;28;19905;-81
2022/01/09 10:28:26;;;;;;;21.35;20.35;;;10.20;78.80;;;;;;5068982;28;20501;-81
2022/01/09 10:30:52;;;;;;;20.45;19.55;;;10.20;78.80;;;;;;5069869;28;20024;-82
2022/01/09 10:33:23;;;;;;;20.85;19.48;;;10.30;78.80;;;;;;5070810;28;20039;-81
2022/01/09 10:35:49;;;;;;;19.80;18.80;;;10.40;78.90;;;;;;5055145;28;20020;-81
2022/01/09 10:38:17;;;;;;;18.80;17.90;;;10.60;78.80;;;;;;5054358;28;20387;-81
2022/01/09 10:40:49;;;;;;;19.73;18.83;;;10.70;78.70;;;;;;5072272;28;20119;-81
2022/01/09 10:43:20;;;;;;;22.63;21.52;;;10.80;78.70;;;;;;5087994;28;20040;-84
2022/01/09 10:45:58;;;;;;;20.48;19.58;;;10.90;78.60;;;;;;5068534;28;20032;-82
2022/01/09 10:48:33;;;;;;;20.88;19.88;;;10.90;79.40;;;;;;5054768;28;20028;-82
2022/01/09 10:50:59;;;;;;;24.00;22.52;;;10.90;78.80;;;;;;5055423;28;20531;-82
2022/01/09 10:53:33;;;;;;;20.27;19.38;;;10.90;78.80;;;;;;5053834;28;20028;-83
2022/01/09 10:56:21;;;;;;;20.98;20.00;;;11.00;78.90;;;;;;5071193;28;20376;-84
2022/01/09 10:58:54;;;;;;;20.80;19.77;;;11.10;78.90;;;;;;5101081;28;20036;-82
2022/01/09 11:01:26;;;;;;;24.98;23.58;;;11.10;78.70;;;;;;5105664;28;20037;-82
2022/01/09 11:03:54;;;;;;;24.73;22.92;;;11.10;78.70;;;;;;5070705;28;20044;-81
2022/01/09 11:06:21;;;;;;;21.85;20.85;;;11.10;78.70;;;;;;5069938;28;20500;-82
2022/01/09 11:08:48;;;;;;;21.75;20.75;;;11.10;78.70;;;;;;5070337;28;20039;-87
2022/01/09 11:13:57;;;;;;;21.13;20.13;;;11.10;78.80;;;;;;5057456;28;20385;-85
2022/01/09 11:16:33;;;;;;;20.95;19.95;;;11.20;78.80;;;;;;5071302;28;20052;-84
2022/01/09 11:19:00;;;;;;;21.58;20.38;;;11.20;78.70;;;;;;5071935;28;20032;-83
2022/01/09 11:21:26;;;;;;;21.70;20.70;;;11.20;78.70;;;;;;5069928;28;20032;-84
2022/01/09 11:24:10;;;;;;;21.67;20.63;;;11.20;78.70;;;;;;5051081;28;20055;-83
2022/01/09 11:26:52;;;;;;;22.05;21.05;;;11.20;78.60;;;;;;5071380;28;20489;-83
2022/01/09 11:29:49;;;;;;;21.33;20.30;;;11.20;78.60;;;;;;5037169;28;20409;-83
2022/01/09 11:32:41;;;;;;;21.27;20.23;;;11.30;78.60;;;;;;5070078;28;20029;-85
2022/01/09 11:35:29;;;;;;;21.73;20.73;;;11.30;78.60;;;;;;5009316;28;20038;-82
2022/01/09 11:38:16;;;;;;;21.25;20.25;;;11.30;78.50;;;;;;4992609;28;20038;-80
2022/01/09 11:40:42;;;;;;;21.75;20.75;;;11.30;78.50;;;;;;5010447;28;20411;-81
2022/01/09 11:43:09;;;;;;;21.92;20.90;;;11.30;78.50;;;;;;5026564;28;20042;-81
2022/01/09 11:45:47;;;;;;;21.55;20.50;;;11.20;78.50;;;;;;5025727;28;20456;-82
2022/01/09 11:48:16;;;;;;;22.63;21.35;;;11.30;78.60;;;;;;5010178;28;20036;-83
2022/01/09 11:51:07;;;;;;;21.35;20.35;;;11.30;78.60;;;;;;4983183;28;20034;-83
2022/01/09 11:53:58;;;;;;;21.52;20.52;;;11.30;78.40;;;;;;5008451;28;20491;-81
2022/01/09 11:56:52;;;;;;;21.13;20.13;;;11.40;78.30;;;;;;4973973;28;20504;-81
2022/01/09 11:59:21;;;;;;;22.20;21.10;;;11.40;78.10;;;;;;4972525;28;20205;-79
2022/01/09 12:01:48;;;;;;;22.10;21.00;;;11.50;78.10;;;;;;5016623;28;20037;-81
2022/01/09 12:04:35;;;;;;;21.77;20.77;;;11.60;78.00;;;;;;4993637;28;20074;-82
2022/01/09 12:07:31;;;;;;;22.08;20.80;;;11.60;77.80;;;;;;5009286;28;20048;-82
2022/01/09 12:09:57;;;;;;;22.63;21.42;;;11.60;77.70;;;;;;4950985;29;20039;-82
2022/01/09 12:12:32;;;;;;;21.85;20.85;;;11.60;77.90;;;;;;5006137;28;20037;-82
2022/01/09 12:15:05;;;;;;;21.30;20.30;;;11.50;78.00;;;;;;5028259;28;20546;-81
2022/01/09 12:17:36;;;;;;;21.48;20.48;;;11.50;78.00;;;;;;5008913;28;20406;-81
2022/01/09 12:20:08;;;;;;;22.15;21.15;;;11.50;78.00;;;;;;5028218;28;20045;-81
2022/01/09 12:25:21;;;;;;;22.67;21.60;;;11.40;78.10;;;;;;5016974;28;20042;-81
2022/01/09 12:27:54;;;;;;;22.52;21.42;;;11.40;78.10;;;;;;5023544;28;20482;-81
2022/01/09 12:33:25;;;;;;;23.02;21.95;;;11.40;78.10;;;;;;5030702;28;20033;-82
2022/01/09 12:35:59;;;;;;;22.08;21.08;;;11.40;78.10;;;;;;5013684;28;20072;-82
2022/01/09 12:38:27;;;;;;;22.05;21.05;;;11.40;78.10;;;;;;5011151;28;20044;-81
2022/01/09 12:41:12;;;;;;;23.27;22.17;;;11.40;78.20;;;;;;5028930;28;20044;-82
2022/01/09 12:43:38;;;;;;;23.55;22.35;;;11.40;78.20;;;;;;5029997;28;20041;-82
2022/01/09 12:46:12;;;;;;;23.38;22.17;;;11.40;78.10;;;;;;5018452;28;20032;-81
2022/01/09 12:48:40;;;;;;;23.00;21.90;;;11.40;78.10;;;;;;5051586;28;20031;-83